createdAt,value
2023-05-13T00:01:43.927Z,77.22
2023-05-13T00:04:10.826Z,68.60
2023-05-13T00:06:37.838Z,70.70
2023-05-13T00:09:05.092Z,69.35
2023-05-13T00:11:32.015Z,71.40
2023-05-13T00:13:58.874Z,75.38
2023-05-13T00:16:27.753Z,72.30
2023-05-13T00:18:55.987Z,73.30
2023-05-13T00:21:23.597Z,63.60
2023-05-13T00:23:50.564Z,78.75
2023-05-13T00:26:17.654Z,65.10
2023-05-13T00:28:47.560Z,70.38
2023-05-13T00:31:15.199Z,71.55
2023-05-13T00:33:42.123Z,73.97
2023-05-13T00:36:10.198Z,71.38
2023-05-13T00:38:37.881Z,60.88
2023-05-13T00:41:05.549Z,65.18
2023-05-13T00:43:32.546Z,79.28
2023-05-13T00:46:00.355Z,66.93
2023-05-13T00:48:27.385Z,77.55
2023-05-13T00:50:54.443Z,72.72
2023-05-13T00:53:21.709Z,76.00
2023-05-13T00:55:48.681Z,68.30
2023-05-13T00:58:17.329Z,64.07
2023-05-13T01:00:50.718Z,78.40
2023-05-13T01:03:33.539Z,86.07
2023-05-13T01:06:16.572Z,80.82
2023-05-13T01:09:12.843Z,80.53
2023-05-13T01:11:41.881Z,72.72
2023-05-13T01:14:15.024Z,70.53
2023-05-13T01:17:22.532Z,77.18
2023-05-13T01:19:57.656Z,82.13
2023-05-13T01:22:24.945Z,78.47
2023-05-13T01:24:51.826Z,88.47
2023-05-13T01:27:20.028Z,84.00
2023-05-13T01:29:47.810Z,80.25
2023-05-13T01:32:20.000Z,68.05
2023-05-13T01:34:47.764Z,84.00
2023-05-13T01:37:15.177Z,78.22
2023-05-13T01:39:43.257Z,82.05
2023-05-13T01:42:13.956Z,80.00
2023-05-13T01:44:40.873Z,81.40
2023-05-13T01:47:07.776Z,78.88
2023-05-13T01:49:35.331Z,74.40
2023-05-13T01:52:02.291Z,77.65
2023-05-13T01:54:29.321Z,89.90
2023-05-13T01:57:02.056Z,84.55
2023-05-13T01:59:29.381Z,80.15
2023-05-13T02:01:56.612Z,75.82
2023-05-13T02:04:27.489Z,88.50
2023-05-13T02:06:54.641Z,84.78
2023-05-13T02:09:22.019Z,87.18
2023-05-13T02:11:48.959Z,79.15
2023-05-13T02:14:16.206Z,84.75
2023-05-13T02:16:43.330Z,70.78
2023-05-13T02:19:10.546Z,81.70
2023-05-13T02:21:37.509Z,75.80
2023-05-13T02:24:07.415Z,75.05
2023-05-13T02:26:34.586Z,74.53
2023-05-13T02:29:01.651Z,67.00
2023-05-13T02:31:29.371Z,83.10
2023-05-13T02:33:56.244Z,67.82
2023-05-13T02:36:23.232Z,68.07
2023-05-13T02:38:50.319Z,74.25
2023-05-13T02:41:17.557Z,66.05
2023-05-13T02:43:44.477Z,83.70
2023-05-13T02:46:11.661Z,75.03
2023-05-13T02:48:39.872Z,84.60
2023-05-13T02:51:06.993Z,83.60
2023-05-13T02:53:33.869Z,76.45
2023-05-13T02:56:04.873Z,78.05
2023-05-13T02:58:31.708Z,70.78
2023-05-13T03:00:59.502Z,81.15
2023-05-13T03:03:26.830Z,76.40
2023-05-13T03:05:53.744Z,69.70
2023-05-13T03:08:21.158Z,80.60
2023-05-13T03:10:48.200Z,86.82
2023-05-13T03:13:15.170Z,85.65
2023-05-13T03:15:44.464Z,65.03
2023-05-13T03:18:12.156Z,82.10
2023-05-13T03:20:39.416Z,71.70
2023-05-13T03:23:06.351Z,69.18
2023-05-13T03:25:34.296Z,72.63
2023-05-13T03:28:02.603Z,84.00
2023-05-13T03:30:32.489Z,71.78
2023-05-13T03:33:05.150Z,92.43
2023-05-13T03:35:32.047Z,70.53
2023-05-13T03:37:59.139Z,70.35
2023-05-13T03:40:26.121Z,77.25
2023-05-13T03:42:53.079Z,75.50
2023-05-13T03:45:22.152Z,67.78
2023-05-13T03:47:51.773Z,74.30
2023-05-13T03:50:20.790Z,73.05
2023-05-13T03:52:47.970Z,73.55
2023-05-13T03:55:16.661Z,83.15
2023-05-13T03:57:48.607Z,63.90
2023-05-13T04:00:17.793Z,74.70
2023-05-13T04:02:44.711Z,70.82
2023-05-13T04:05:13.938Z,61.08
2023-05-13T04:07:41.542Z,72.07
2023-05-13T04:10:12.326Z,74.00
2023-05-13T04:12:40.892Z,68.47
2023-05-13T04:15:08.404Z,63.97
2023-05-13T04:17:35.545Z,67.00
2023-05-13T04:20:02.568Z,81.25
2023-05-13T04:22:30.394Z,62.13
2023-05-13T04:24:57.260Z,73.85
2023-05-13T04:27:24.721Z,63.35
2023-05-13T04:29:56.939Z,69.93
2023-05-13T04:32:25.190Z,69.40
2023-05-13T04:34:55.063Z,74.07
2023-05-13T04:37:23.981Z,66.47
2023-05-13T04:39:53.650Z,65.47
2023-05-13T04:42:22.869Z,56.22
2023-05-13T04:44:49.996Z,71.60
2023-05-13T04:47:16.979Z,55.60
2023-05-13T04:49:44.460Z,69.80
2023-05-13T04:52:15.304Z,70.25
2023-05-13T04:54:42.590Z,74.15
2023-05-13T04:57:09.617Z,54.65
2023-05-13T04:59:36.900Z,59.53
2023-05-13T05:02:03.882Z,53.13
2023-05-13T05:04:30.988Z,60.08
2023-05-13T05:06:58.213Z,52.28
2023-05-13T05:09:25.290Z,52.67
2023-05-13T05:11:53.399Z,53.55
2023-05-13T05:14:23.493Z,52.20
2023-05-13T05:16:51.126Z,55.50
2023-05-13T05:19:24.092Z,47.60
2023-05-13T05:21:52.240Z,45.63
2023-05-13T05:24:19.519Z,54.40
2023-05-13T05:26:47.874Z,49.80
2023-05-13T05:29:14.891Z,44.85
2023-05-13T05:31:44.605Z,47.95
2023-05-13T05:34:11.934Z,49.78
2023-05-13T05:36:38.802Z,40.97
2023-05-13T05:39:05.999Z,44.35
2023-05-13T05:41:35.893Z,53.17
2023-05-13T05:44:02.938Z,58.03
2023-05-13T05:46:32.263Z,57.22
2023-05-13T05:49:00.763Z,42.85
2023-05-13T05:51:27.681Z,47.58
2023-05-13T05:53:54.625Z,51.70
2023-05-13T05:56:21.795Z,36.63
2023-05-13T05:58:48.787Z,51.95
2023-05-13T06:01:16.839Z,51.80
2023-05-13T06:03:45.888Z,54.15
2023-05-13T06:06:12.794Z,52.15
2023-05-13T06:08:39.698Z,43.13
2023-05-13T06:11:08.284Z,51.85
2023-05-13T06:13:35.297Z,55.28
2023-05-13T06:16:02.240Z,49.15
2023-05-13T06:18:29.399Z,40.97
2023-05-13T06:20:56.280Z,53.58
2023-05-13T06:23:23.193Z,42.80
2023-05-13T06:25:51.853Z,40.80
2023-05-13T06:28:18.779Z,43.30
2023-05-13T06:30:46.007Z,43.13
2023-05-13T06:33:13.336Z,49.92
2023-05-13T06:35:40.625Z,51.20
2023-05-13T06:38:10.215Z,49.03
2023-05-13T06:40:37.709Z,52.55
2023-05-13T06:43:06.388Z,35.88
2023-05-13T06:45:38.260Z,57.25
2023-05-13T06:48:05.896Z,56.80
2023-05-13T06:50:33.024Z,52.50
2023-05-13T06:53:00.059Z,46.20
2023-05-13T06:55:27.215Z,58.22
2023-05-13T06:57:54.151Z,43.25
2023-05-13T07:00:21.531Z,48.30
2023-05-13T07:02:48.724Z,44.78
2023-05-13T07:05:15.586Z,40.50
2023-05-13T07:07:43.422Z,36.50
2023-05-13T07:10:10.876Z,37.78
2023-05-13T07:12:37.851Z,37.55
2023-05-13T07:15:05.472Z,39.33
2023-05-13T07:17:32.503Z,39.42
2023-05-13T07:19:59.473Z,38.25
2023-05-13T07:22:26.460Z,37.53
2023-05-13T07:24:53.837Z,44.47
2023-05-13T07:27:21.822Z,44.33
2023-05-13T07:29:48.835Z,48.65
2023-05-13T07:32:15.840Z,34.20
2023-05-13T07:34:42.765Z,40.83
2023-05-13T07:37:09.731Z,45.75
2023-05-13T07:39:36.694Z,41.28
2023-05-13T07:42:03.906Z,32.90
2023-05-13T07:44:30.770Z,33.08
2023-05-13T07:46:57.648Z,33.97
2023-05-13T07:49:24.561Z,34.75
2023-05-13T07:51:51.988Z,30.80
2023-05-13T07:54:18.882Z,36.55
2023-05-13T07:56:46.801Z,37.53
2023-05-13T07:59:14.020Z,41.53
2023-05-13T08:14:10.603Z,35.80
2023-05-13T08:16:37.522Z,33.35
2023-05-13T08:19:05.019Z,35.13
2023-05-13T08:21:32.629Z,41.97
2023-05-13T08:23:59.523Z,32.47
2023-05-13T08:26:26.835Z,29.70
2023-05-13T08:28:55.033Z,34.50
2023-05-13T08:31:24.226Z,31.73
2023-05-13T08:33:53.293Z,30.88
2023-05-13T08:36:21.875Z,40.30
2023-05-13T08:38:48.800Z,28.73
2023-05-13T08:41:16.502Z,37.30
2023-05-13T08:43:44.139Z,37.00
2023-05-13T08:46:12.479Z,35.38
2023-05-13T08:48:40.907Z,29.98
2023-05-13T08:51:09.115Z,31.52
2023-05-13T08:53:38.505Z,30.50
2023-05-13T08:56:06.902Z,35.90
2023-05-13T08:58:33.856Z,36.97
2023-05-13T09:01:01.731Z,34.83
2023-05-13T09:03:29.578Z,31.02
2023-05-13T09:05:56.534Z,28.98
2023-05-13T09:08:23.441Z,32.70
2023-05-13T09:10:50.446Z,28.60
2023-05-13T09:13:17.957Z,32.13
2023-05-13T09:15:45.253Z,42.22
2023-05-13T09:18:14.749Z,36.88
2023-05-13T09:20:43.388Z,33.58
2023-05-13T09:23:11.589Z,32.78
2023-05-13T09:25:39.149Z,44.03
2023-05-13T09:28:07.887Z,37.25
2023-05-13T09:30:36.732Z,33.22
2023-05-13T09:33:29.513Z,35.55
2023-05-13T09:35:56.497Z,37.95
2023-05-13T09:38:34.727Z,31.52
2023-05-13T09:41:03.154Z,28.00
2023-05-13T09:43:33.979Z,28.00
2023-05-13T09:46:05.413Z,30.65
2023-05-13T09:48:33.762Z,26.45
2023-05-13T09:51:00.922Z,30.23
2023-05-13T09:53:28.694Z,32.17
2023-05-13T09:55:57.420Z,27.58
2023-05-13T09:58:26.665Z,27.60
2023-05-13T10:00:53.842Z,27.13
2023-05-13T10:03:22.327Z,29.40
2023-05-13T10:05:51.264Z,29.42
2023-05-13T10:08:18.820Z,30.00
2023-05-13T10:10:47.968Z,28.63
2023-05-13T10:13:16.844Z,28.27
2023-05-13T10:15:54.913Z,28.42
2023-05-13T10:18:23.976Z,34.20
2023-05-13T10:20:53.639Z,31.17
2023-05-13T10:23:22.698Z,23.63
2023-05-13T10:25:52.158Z,28.48
2023-05-13T10:28:19.297Z,25.63
2023-05-13T10:30:46.333Z,22.90
2023-05-13T10:33:14.120Z,27.48
2023-05-13T10:35:50.461Z,18.98
2023-05-13T10:38:28.056Z,28.60
2023-05-13T10:40:57.969Z,21.60
2023-05-13T10:43:32.740Z,28.17
2023-05-13T10:46:05.763Z,27.13
2023-05-13T10:48:46.951Z,23.77
2023-05-13T10:51:15.065Z,25.88
2023-05-13T10:53:48.856Z,26.08
2023-05-13T10:56:16.963Z,30.50
2023-05-13T10:58:45.047Z,29.50
2023-05-13T11:01:35.893Z,29.45
2023-05-13T11:04:05.241Z,25.13
2023-05-13T11:06:36.794Z,29.30
2023-05-13T11:09:28.779Z,29.50
2023-05-13T11:12:00.343Z,31.45
2023-05-13T11:14:30.231Z,31.30
2023-05-13T11:16:59.929Z,30.33
2023-05-13T11:19:37.932Z,31.98
2023-05-13T11:22:14.793Z,21.35
2023-05-13T11:24:44.448Z,22.42
2023-05-13T11:27:19.802Z,27.00
2023-05-13T11:32:58.284Z,34.45
2023-05-13T11:35:32.951Z,27.55
2023-05-13T11:38:01.977Z,24.87
2023-05-13T11:40:33.789Z,24.73
2023-05-13T11:43:01.512Z,26.10
2023-05-13T11:45:29.941Z,21.60
2023-05-13T11:47:57.644Z,25.42
2023-05-13T11:50:28.011Z,28.50
2023-05-13T11:52:57.226Z,23.58
2023-05-13T11:55:28.483Z,28.63
2023-05-13T11:57:56.150Z,25.38
2023-05-13T12:00:41.769Z,25.83
2023-05-13T12:03:13.319Z,25.40
2023-05-13T12:05:40.590Z,28.20
2023-05-13T12:08:12.663Z,24.90
2023-05-13T12:10:43.982Z,25.83
2023-05-13T12:13:11.635Z,24.95
2023-05-13T12:15:38.696Z,24.90
2023-05-13T12:18:06.809Z,27.15
2023-05-13T12:20:33.689Z,22.75
2023-05-13T12:23:01.594Z,27.98
2023-05-13T12:25:47.886Z,26.60
2023-05-13T12:28:19.178Z,31.67
2023-05-13T12:30:52.159Z,22.40
2023-05-13T12:33:28.200Z,33.33
2023-05-13T12:36:15.526Z,39.72
2023-05-13T12:38:59.590Z,24.77
2023-05-13T12:41:32.437Z,30.42
2023-05-13T12:44:09.181Z,24.70
2023-05-13T12:46:36.527Z,28.27
2023-05-13T12:49:04.931Z,25.95
2023-05-13T12:51:35.547Z,20.50
2023-05-13T12:54:02.545Z,33.17
2023-05-13T12:56:29.505Z,26.42
2023-05-13T12:58:56.598Z,24.33
2023-05-13T13:01:23.659Z,35.55
2023-05-13T13:03:50.859Z,29.00
2023-05-13T13:06:18.300Z,30.80
2023-05-13T13:08:45.687Z,27.83
2023-05-13T13:11:18.419Z,27.13
2023-05-13T13:13:46.568Z,24.70
2023-05-13T13:16:14.190Z,23.85
2023-05-13T13:18:42.110Z,25.92
2023-05-13T13:21:09.908Z,22.80
2023-05-13T13:23:36.952Z,27.00
2023-05-13T13:26:03.953Z,22.02
2023-05-13T13:28:31.814Z,22.70
2023-05-13T13:30:59.931Z,30.23
2023-05-13T13:33:27.402Z,26.10
2023-05-13T13:35:54.586Z,28.80
2023-05-13T13:38:21.505Z,26.02
2023-05-13T13:40:48.385Z,27.70
2023-05-13T13:43:15.375Z,29.35
2023-05-13T13:45:42.354Z,25.30
2023-05-13T13:48:09.335Z,25.10
2023-05-13T13:50:36.215Z,26.50
2023-05-13T13:53:03.159Z,29.05
2023-05-13T13:55:30.032Z,30.42
2023-05-13T13:57:56.970Z,27.42
2023-05-13T14:00:23.932Z,32.08
2023-05-13T14:02:51.228Z,29.05
2023-05-13T14:05:18.267Z,22.60
2023-05-13T14:07:46.347Z,30.55
2023-05-13T14:10:13.303Z,28.25
2023-05-13T14:12:40.208Z,35.28
2023-05-13T14:15:07.738Z,24.02
2023-05-13T14:17:34.863Z,27.55
2023-05-13T14:20:01.736Z,24.80
2023-05-13T14:22:28.767Z,21.13
2023-05-13T14:24:55.641Z,27.95
2023-05-13T14:27:24.775Z,21.60
2023-05-13T14:29:51.987Z,25.77
2023-05-13T14:32:19.093Z,22.92
2023-05-13T14:34:46.309Z,22.15
2023-05-13T14:37:13.240Z,23.25
2023-05-13T14:39:40.164Z,25.60
2023-05-13T14:42:07.419Z,25.20
2023-05-13T14:44:34.422Z,26.65
2023-05-13T14:47:01.490Z,21.95
2023-05-13T14:49:28.560Z,26.02
2023-05-13T14:51:55.698Z,26.08
2023-05-13T14:54:22.626Z,26.13
2023-05-13T14:56:50.709Z,25.63
2023-05-13T14:59:17.768Z,33.20
2023-05-13T15:01:45.118Z,23.92
2023-05-13T15:04:11.983Z,27.13
2023-05-13T15:06:39.080Z,23.13
2023-05-13T15:09:07.025Z,24.60
2023-05-13T15:11:33.996Z,37.15
2023-05-13T15:14:02.125Z,29.45
2023-05-13T15:16:29.404Z,27.85
2023-05-13T15:18:56.299Z,22.75
2023-05-13T15:21:23.308Z,26.02
2023-05-13T15:23:50.240Z,30.92
2023-05-13T15:26:17.174Z,25.02
2023-05-13T15:28:44.036Z,31.50
2023-05-13T15:31:11.057Z,24.23
2023-05-13T15:33:37.914Z,28.35
2023-05-13T15:36:06.160Z,31.70
2023-05-13T15:38:33.021Z,24.50
2023-05-13T15:41:00.360Z,26.02
2023-05-13T15:43:28.324Z,28.60
2023-05-13T15:45:55.434Z,27.52
2023-05-13T15:48:22.453Z,28.90
2023-05-13T15:50:49.385Z,22.52
2023-05-13T15:53:16.252Z,30.75
2023-05-13T15:55:43.162Z,34.47
2023-05-13T15:58:09.997Z,31.42
2023-05-13T16:00:36.917Z,33.55
2023-05-13T16:03:03.995Z,28.45
2023-05-13T16:05:30.988Z,34.15
2023-05-13T16:07:58.002Z,24.92
2023-05-13T16:10:25.240Z,28.77
2023-05-13T16:12:52.296Z,27.08
2023-05-13T16:15:19.261Z,27.65
2023-05-13T16:17:46.177Z,35.13
2023-05-13T16:20:19.489Z,31.30
2023-05-13T16:22:46.452Z,29.92
2023-05-13T16:25:13.335Z,25.23
2023-05-13T16:27:42.919Z,30.00
2023-05-13T16:30:10.533Z,38.80
2023-05-13T16:32:37.740Z,31.92
2023-05-13T16:35:05.526Z,35.85
2023-05-13T16:37:35.086Z,33.92
2023-05-13T16:40:02.135Z,24.95
2023-05-13T16:42:29.037Z,29.77
2023-05-13T16:44:56.043Z,28.73
2023-05-13T16:47:22.924Z,39.10
2023-05-13T16:49:50.249Z,27.50
2023-05-13T16:52:17.238Z,32.42
2023-05-13T16:54:44.748Z,38.25
2023-05-13T16:57:11.839Z,29.70
2023-05-13T16:59:38.762Z,31.83
2023-05-13T17:02:06.504Z,27.50
2023-05-13T17:04:34.913Z,32.03
2023-05-13T17:07:02.580Z,29.17
2023-05-13T17:09:30.793Z,29.92
2023-05-13T17:11:57.889Z,28.13
2023-05-13T17:14:25.547Z,36.80
2023-05-13T17:16:52.731Z,34.25
2023-05-13T17:19:19.980Z,37.83
2023-05-13T17:21:47.138Z,34.30
2023-05-13T17:24:14.096Z,27.70
2023-05-13T17:26:40.998Z,38.95
2023-05-13T17:29:07.983Z,31.48
2023-05-13T17:31:34.845Z,33.00
2023-05-13T17:34:01.837Z,34.67
2023-05-13T17:36:28.719Z,29.13
2023-05-13T17:38:55.628Z,38.67
2023-05-13T17:41:22.572Z,32.67
2023-05-13T17:43:49.601Z,29.42
2023-05-13T17:46:16.436Z,28.95
2023-05-13T17:48:43.516Z,35.20
2023-05-13T17:51:11.222Z,37.72
2023-05-13T17:53:38.287Z,39.20
2023-05-13T17:56:05.551Z,36.58
2023-05-13T17:58:32.461Z,38.17
2023-05-13T18:00:59.255Z,29.00
2023-05-13T18:03:26.755Z,38.20
2023-05-13T18:05:53.804Z,35.35
2023-05-13T18:08:20.852Z,31.35
2023-05-13T18:10:48.420Z,31.08
2023-05-13T18:13:15.552Z,37.13
2023-05-13T18:15:42.360Z,29.33
2023-05-13T18:18:09.917Z,39.13
2023-05-13T18:20:37.592Z,41.75
2023-05-13T18:23:04.641Z,35.42
2023-05-13T18:25:31.645Z,40.10
2023-05-13T18:27:58.629Z,35.25
2023-05-13T18:30:25.688Z,32.95
2023-05-13T18:32:52.661Z,31.67
2023-05-13T18:35:21.413Z,34.83
2023-05-13T18:37:48.380Z,36.88
2023-05-13T18:40:15.274Z,37.70
2023-05-13T18:42:42.228Z,42.22
2023-05-13T18:45:10.010Z,35.72
2023-05-13T18:47:36.930Z,41.38
2023-05-13T18:50:04.118Z,35.42
2023-05-13T18:52:31.093Z,36.17
2023-05-13T18:54:57.983Z,31.08
2023-05-13T18:57:25.024Z,36.67
2023-05-13T18:59:52.236Z,37.25
2023-05-13T19:02:19.480Z,36.88
2023-05-13T19:04:46.548Z,30.63
2023-05-13T19:07:13.460Z,37.50
2023-05-13T19:09:40.389Z,36.03
2023-05-13T19:12:07.721Z,42.95
2023-05-13T19:14:34.605Z,51.00
2023-05-13T19:17:01.768Z,40.00
2023-05-13T19:19:28.774Z,35.30
2023-05-13T19:21:55.708Z,40.20
2023-05-13T19:24:22.469Z,41.83
2023-05-13T19:26:49.880Z,36.13
2023-05-13T19:29:16.685Z,37.90
2023-05-13T19:31:43.695Z,43.70
2023-05-13T19:34:10.658Z,40.47
2023-05-13T19:36:37.706Z,43.22
2023-05-13T19:39:04.507Z,38.38
2023-05-13T19:41:31.514Z,38.28
2023-05-13T19:43:58.316Z,51.67
2023-05-13T19:46:25.273Z,41.75
2023-05-13T19:48:52.155Z,38.83
2023-05-13T19:51:19.159Z,33.30
2023-05-13T19:53:45.972Z,45.35
2023-05-13T19:56:12.974Z,39.13
2023-05-13T19:58:39.776Z,33.38
2023-05-13T20:01:06.669Z,37.10
2023-05-13T20:03:33.630Z,39.08
2023-05-13T20:06:01.683Z,48.85
2023-05-13T20:08:31.468Z,42.40
2023-05-13T20:10:58.509Z,40.78
2023-05-13T20:13:26.112Z,38.60
2023-05-13T20:15:53.031Z,39.47
2023-05-13T20:18:19.953Z,44.00
2023-05-13T20:20:48.030Z,44.05
2023-05-13T20:23:14.904Z,39.85
2023-05-13T20:25:41.855Z,43.47
2023-05-13T20:28:08.668Z,47.53
2023-05-13T20:30:35.610Z,48.25
2023-05-13T20:33:02.512Z,38.80
2023-05-13T20:35:29.520Z,42.78
2023-05-13T20:37:57.282Z,46.63
2023-05-13T20:40:24.786Z,41.13
2023-05-13T20:42:51.813Z,39.42
2023-05-13T20:45:18.815Z,38.63
2023-05-13T20:47:45.715Z,41.00
2023-05-13T20:50:13.098Z,37.28
2023-05-13T20:52:39.969Z,48.95
2023-05-13T20:55:07.283Z,44.63
2023-05-13T20:57:34.127Z,44.92
2023-05-13T21:00:01.111Z,46.67
2023-05-13T21:02:28.022Z,42.92
2023-05-13T21:04:54.995Z,38.97
2023-05-13T21:07:21.811Z,38.08
2023-05-13T21:09:48.717Z,41.40
2023-05-13T21:12:15.641Z,43.80
2023-05-13T21:14:42.532Z,54.25
2023-05-13T21:17:09.848Z,47.88
2023-05-13T21:19:36.683Z,42.88
2023-05-13T21:22:05.812Z,44.75
2023-05-13T21:24:32.784Z,47.08
2023-05-13T21:26:59.587Z,51.70
2023-05-13T21:29:26.505Z,39.33
2023-05-13T21:31:54.648Z,47.35
2023-05-13T21:34:21.612Z,51.92
2023-05-13T21:36:48.460Z,44.55
2023-05-13T21:39:15.423Z,49.65
2023-05-13T21:41:42.287Z,44.08
2023-05-13T21:44:09.220Z,47.83
2023-05-13T21:46:36.157Z,40.80
2023-05-13T21:49:03.567Z,43.92
2023-05-13T21:51:32.645Z,51.85
2023-05-13T21:53:59.581Z,61.42
2023-05-13T21:56:26.423Z,51.85
2023-05-13T21:58:53.344Z,52.50
2023-05-13T22:01:20.343Z,53.35
2023-05-13T22:03:47.301Z,57.30
2023-05-13T22:06:14.398Z,46.47
2023-05-13T22:08:41.312Z,58.05
2023-05-13T22:11:08.172Z,46.80
2023-05-13T22:13:35.092Z,48.90
2023-05-13T22:16:01.998Z,52.70
2023-05-13T22:18:29.258Z,49.38
2023-05-13T22:20:56.368Z,50.58
2023-05-13T22:23:23.389Z,64.15
2023-05-13T22:25:50.674Z,50.28
2023-05-13T22:28:17.633Z,64.03
2023-05-13T22:30:47.249Z,70.07
2023-05-13T22:33:14.293Z,51.35
2023-05-13T22:35:41.174Z,51.92
2023-05-13T22:38:08.186Z,57.67
2023-05-13T22:40:35.920Z,61.33
2023-05-13T22:43:03.320Z,42.15
2023-05-13T22:45:30.624Z,57.47
2023-05-13T22:47:57.705Z,59.33
2023-05-13T22:50:24.938Z,56.83
2023-05-13T22:52:52.214Z,56.00
2023-05-13T22:55:19.115Z,53.47
2023-05-13T22:57:46.274Z,53.63
2023-05-13T23:00:13.565Z,50.55
2023-05-13T23:02:40.690Z,50.15
2023-05-13T23:05:07.912Z,59.90
2023-05-13T23:07:34.788Z,51.88
2023-05-13T23:10:01.642Z,49.58
2023-05-13T23:12:28.544Z,42.40
2023-05-13T23:14:55.571Z,57.90
2023-05-13T23:17:22.490Z,53.42
2023-05-13T23:19:49.350Z,59.50
2023-05-13T23:22:16.409Z,39.25
2023-05-13T23:24:43.588Z,49.33
2023-05-13T23:27:11.513Z,45.75
2023-05-13T23:29:38.482Z,52.03
2023-05-13T23:32:07.001Z,52.20
2023-05-13T23:34:34.173Z,50.42
2023-05-13T23:37:01.114Z,55.55
2023-05-13T23:39:27.906Z,49.17
2023-05-13T23:41:54.807Z,49.97
2023-05-13T23:44:21.672Z,50.83
2023-05-13T23:46:48.585Z,57.15
2023-05-13T23:49:15.512Z,61.50
2023-05-13T23:51:42.470Z,52.65
2023-05-13T23:54:09.245Z,59.40
2023-05-13T23:56:36.139Z,57.90
2023-05-13T23:59:03.269Z,50.67
